sensor_id;sensor_type;location;lat;lon;timestamp;temperature;humidity
38514;DHT22;24282;48.400;10.808;2023-06-19T00:01:58;20.10;61.20
38514;DHT22;24282;48.400;10.808;2023-06-19T00:04:24;20.10;62.30
38514;DHT22;24282;48.400;10.808;2023-06-19T00:06:49;20.10;63.00
38514;DHT22;24282;48.400;10.808;2023-06-19T00:09:15;20.10;63.30
38514;DHT22;24282;48.400;10.808;2023-06-19T00:11:41;20.00;63.50
38514;DHT22;24282;48.400;10.808;2023-06-19T00:14:06;20.00;63.80
38514;DHT22;24282;48.400;10.808;2023-06-19T00:16:32;19.90;63.90
38514;DHT22;24282;48.400;10.808;2023-06-19T00:18:58;19.90;63.50
38514;DHT22;24282;48.400;10.808;2023-06-19T00:21:25;19.90;63.60
38514;DHT22;24282;48.400;10.808;2023-06-19T00:23:52;19.80;64.10
38514;DHT22;24282;48.400;10.808;2023-06-19T00:26:18;19.80;64.20
38514;DHT22;24282;48.400;10.808;2023-06-19T00:28:49;19.80;64.30
38514;DHT22;24282;48.400;10.808;2023-06-19T00:31:15;19.80;64.20
38514;DHT22;24282;48.400;10.808;2023-06-19T00:33:43;19.80;64.10
38514;DHT22;24282;48.400;10.808;2023-06-19T00:36:10;19.80;63.80
38514;DHT22;24282;48.400;10.808;2023-06-19T00:38:40;19.70;64.10
38514;DHT22;24282;48.400;10.808;2023-06-19T00:41:06;19.80;64.40
38514;DHT22;24282;48.400;10.808;2023-06-19T00:43:32;19.70;64.60
38514;DHT22;24282;48.400;10.808;2023-06-19T00:45:59;19.70;64.60
38514;DHT22;24282;48.400;10.808;2023-06-19T00:48:27;19.70;64.30
38514;DHT22;24282;48.400;10.808;2023-06-19T00:50:54;19.70;64.30
38514;DHT22;24282;48.400;10.808;2023-06-19T00:53:22;19.60;64.30
38514;DHT22;24282;48.400;10.808;2023-06-19T00:55:49;19.60;63.60
38514;DHT22;24282;48.400;10.808;2023-06-19T00:58:17;19.60;64.10
38514;DHT22;24282;48.400;10.808;2023-06-19T01:00:46;19.60;64.10
38514;DHT22;24282;48.400;10.808;2023-06-19T01:03:12;19.50;64.70
38514;DHT22;24282;48.400;10.808;2023-06-19T01:05:38;19.40;64.80
38514;DHT22;24282;48.400;10.808;2023-06-19T01:10:51;19.40;65.50
38514;DHT22;24282;48.400;10.808;2023-06-19T01:13:27;19.30;65.70
38514;DHT22;24282;48.400;10.808;2023-06-19T01:15:54;19.30;65.90
38514;DHT22;24282;48.400;10.808;2023-06-19T01:18:22;19.20;65.80
38514;DHT22;24282;48.400;10.808;2023-06-19T01:20:49;19.20;66.10
38514;DHT22;24282;48.400;10.808;2023-06-19T01:23:15;19.20;66.10
38514;DHT22;24282;48.400;10.808;2023-06-19T01:25:40;19.10;66.10
38514;DHT22;24282;48.400;10.808;2023-06-19T01:28:09;19.10;66.10
38514;DHT22;24282;48.400;10.808;2023-06-19T01:30:37;19.10;66.30
38514;DHT22;24282;48.400;10.808;2023-06-19T01:33:09;19.10;66.20
38514;DHT22;24282;48.400;10.808;2023-06-19T01:35:36;19.10;66.00
38514;DHT22;24282;48.400;10.808;2023-06-19T01:38:05;19.10;66.00
38514;DHT22;24282;48.400;10.808;2023-06-19T01:40:32;19.10;66.20
38514;DHT22;24282;48.400;10.808;2023-06-19T01:43:00;19.00;66.00
38514;DHT22;24282;48.400;10.808;2023-06-19T01:45:30;19.00;66.20
38514;DHT22;24282;48.400;10.808;2023-06-19T01:47:56;19.00;66.40
38514;DHT22;24282;48.400;10.808;2023-06-19T01:50:23;19.00;66.30
38514;DHT22;24282;48.400;10.808;2023-06-19T01:52:50;19.00;66.50
38514;DHT22;24282;48.400;10.808;2023-06-19T01:55:17;19.00;66.60
38514;DHT22;24282;48.400;10.808;2023-06-19T01:57:43;19.00;66.80
38514;DHT22;24282;48.400;10.808;2023-06-19T02:00:12;19.00;66.70
38514;DHT22;24282;48.400;10.808;2023-06-19T02:02:41;19.00;66.80
38514;DHT22;24282;48.400;10.808;2023-06-19T02:05:07;19.00;67.00
38514;DHT22;24282;48.400;10.808;2023-06-19T02:07:33;19.00;67.10
38514;DHT22;24282;48.400;10.808;2023-06-19T02:09:59;19.00;67.20
38514;DHT22;24282;48.400;10.808;2023-06-19T02:12:24;19.00;67.50
38514;DHT22;24282;48.400;10.808;2023-06-19T02:14:50;19.00;67.70
38514;DHT22;24282;48.400;10.808;2023-06-19T02:17:16;19.00;67.80
38514;DHT22;24282;48.400;10.808;2023-06-19T02:19:41;18.90;68.00
38514;DHT22;24282;48.400;10.808;2023-06-19T02:22:08;18.90;68.00
38514;DHT22;24282;48.400;10.808;2023-06-19T02:24:34;18.90;68.10
38514;DHT22;24282;48.400;10.808;2023-06-19T02:26:59;18.90;68.20
38514;DHT22;24282;48.400;10.808;2023-06-19T02:29:26;18.90;68.20
38514;DHT22;24282;48.400;10.808;2023-06-19T02:31:51;18.90;68.20
38514;DHT22;24282;48.400;10.808;2023-06-19T02:34:17;18.90;67.80
38514;DHT22;24282;48.400;10.808;2023-06-19T02:36:43;18.90;67.90
38514;DHT22;24282;48.400;10.808;2023-06-19T02:39:09;18.90;68.10
38514;DHT22;24282;48.400;10.808;2023-06-19T02:41:35;18.80;68.30
38514;DHT22;24282;48.400;10.808;2023-06-19T02:44:03;18.80;68.50
38514;DHT22;24282;48.400;10.808;2023-06-19T02:46:28;18.80;68.50
38514;DHT22;24282;48.400;10.808;2023-06-19T02:48:54;18.80;68.50
38514;DHT22;24282;48.400;10.808;2023-06-19T02:51:21;18.70;68.50
38514;DHT22;24282;48.400;10.808;2023-06-19T02:53:47;18.70;68.60
38514;DHT22;24282;48.400;10.808;2023-06-19T02:56:13;18.60;68.60
38514;DHT22;24282;48.400;10.808;2023-06-19T02:58:39;18.70;68.50
38514;DHT22;24282;48.400;10.808;2023-06-19T03:01:05;18.60;68.60
38514;DHT22;24282;48.400;10.808;2023-06-19T03:03:34;18.60;68.60
38514;DHT22;24282;48.400;10.808;2023-06-19T03:06:05;18.60;68.60
38514;DHT22;24282;48.400;10.808;2023-06-19T03:08:36;18.60;68.90
38514;DHT22;24282;48.400;10.808;2023-06-19T03:11:02;18.60;69.00
38514;DHT22;24282;48.400;10.808;2023-06-19T03:16:10;18.60;69.20
38514;DHT22;24282;48.400;10.808;2023-06-19T03:18:36;18.60;69.20
38514;DHT22;24282;48.400;10.808;2023-06-19T03:21:02;18.60;69.20
38514;DHT22;24282;48.400;10.808;2023-06-19T03:23:28;18.60;69.30
38514;DHT22;24282;48.400;10.808;2023-06-19T03:25:54;18.60;69.30
38514;DHT22;24282;48.400;10.808;2023-06-19T03:28:19;18.60;69.30
38514;DHT22;24282;48.400;10.808;2023-06-19T03:30:45;18.60;69.50
38514;DHT22;24282;48.400;10.808;2023-06-19T03:33:14;18.60;69.40
38514;DHT22;24282;48.400;10.808;2023-06-19T03:35:42;18.60;69.50
38514;DHT22;24282;48.400;10.808;2023-06-19T03:38:11;18.60;69.70
38514;DHT22;24282;48.400;10.808;2023-06-19T03:40:37;18.60;69.70
38514;DHT22;24282;48.400;10.808;2023-06-19T03:43:08;18.60;69.80
38514;DHT22;24282;48.400;10.808;2023-06-19T03:45:35;18.60;69.80
38514;DHT22;24282;48.400;10.808;2023-06-19T03:48:01;18.60;69.40
38514;DHT22;24282;48.400;10.808;2023-06-19T03:50:27;18.60;69.10
38514;DHT22;24282;48.400;10.808;2023-06-19T03:52:52;18.60;68.70
38514;DHT22;24282;48.400;10.808;2023-06-19T03:55:18;18.70;68.50
38514;DHT22;24282;48.400;10.808;2023-06-19T03:57:44;18.70;68.50
38514;DHT22;24282;48.400;10.808;2023-06-19T04:00:11;18.80;68.40
38514;DHT22;24282;48.400;10.808;2023-06-19T04:02:39;18.80;68.20
38514;DHT22;24282;48.400;10.808;2023-06-19T04:05:05;18.80;68.60
38514;DHT22;24282;48.400;10.808;2023-06-19T04:07:31;18.80;68.60
38514;DHT22;24282;48.400;10.808;2023-06-19T04:09:58;18.90;68.80
38514;DHT22;24282;48.400;10.808;2023-06-19T04:12:24;18.90;68.80
38514;DHT22;24282;48.400;10.808;2023-06-19T04:14:50;18.90;68.90
38514;DHT22;24282;48.400;10.808;2023-06-19T04:17:16;18.90;68.90
38514;DHT22;24282;48.400;10.808;2023-06-19T04:19:42;18.90;68.80
38514;DHT22;24282;48.400;10.808;2023-06-19T04:22:08;18.90;68.80
38514;DHT22;24282;48.400;10.808;2023-06-19T04:24:35;19.00;69.00
38514;DHT22;24282;48.400;10.808;2023-06-19T04:27:01;19.00;69.00
38514;DHT22;24282;48.400;10.808;2023-06-19T04:29:26;19.00;69.10
38514;DHT22;24282;48.400;10.808;2023-06-19T04:32:00;19.00;69.20
38514;DHT22;24282;48.400;10.808;2023-06-19T04:34:28;19.00;69.40
38514;DHT22;24282;48.400;10.808;2023-06-19T04:36:54;19.10;69.30
38514;DHT22;24282;48.400;10.808;2023-06-19T04:39:24;19.10;69.30
38514;DHT22;24282;48.400;10.808;2023-06-19T04:41:50;19.10;69.30
38514;DHT22;24282;48.400;10.808;2023-06-19T04:44:15;19.20;68.90
38514;DHT22;24282;48.400;10.808;2023-06-19T04:46:42;19.20;69.20
38514;DHT22;24282;48.400;10.808;2023-06-19T04:49:09;19.20;69.00
38514;DHT22;24282;48.400;10.808;2023-06-19T04:51:35;19.20;68.90
38514;DHT22;24282;48.400;10.808;2023-06-19T04:54:01;19.20;69.10
38514;DHT22;24282;48.400;10.808;2023-06-19T04:56:27;19.20;69.40
38514;DHT22;24282;48.400;10.808;2023-06-19T04:58:55;19.10;69.70
38514;DHT22;24282;48.400;10.808;2023-06-19T05:01:21;19.10;69.80
38514;DHT22;24282;48.400;10.808;2023-06-19T05:03:53;19.10;70.00
38514;DHT22;24282;48.400;10.808;2023-06-19T05:06:23;19.20;69.60
38514;DHT22;24282;48.400;10.808;2023-06-19T05:08:48;19.10;69.60
38514;DHT22;24282;48.400;10.808;2023-06-19T05:11:14;19.20;69.70
38514;DHT22;24282;48.400;10.808;2023-06-19T05:13:40;19.20;69.80
38514;DHT22;24282;48.400;10.808;2023-06-19T05:16:05;19.20;69.80
38514;DHT22;24282;48.400;10.808;2023-06-19T05:18:31;19.30;69.30
38514;DHT22;24282;48.400;10.808;2023-06-19T05:20:57;19.30;69.10
38514;DHT22;24282;48.400;10.808;2023-06-19T05:23:23;19.30;69.30
38514;DHT22;24282;48.400;10.808;2023-06-19T05:25:48;19.40;69.50
38514;DHT22;24282;48.400;10.808;2023-06-19T05:28:14;19.40;69.00
38514;DHT22;24282;48.400;10.808;2023-06-19T05:30:40;19.50;68.80
38514;DHT22;24282;48.400;10.808;2023-06-19T05:33:05;19.60;68.90
38514;DHT22;24282;48.400;10.808;2023-06-19T05:35:31;19.60;68.90
38514;DHT22;24282;48.400;10.808;2023-06-19T05:37:57;19.70;68.70
38514;DHT22;24282;48.400;10.808;2023-06-19T05:40:26;19.80;68.40
38514;DHT22;24282;48.400;10.808;2023-06-19T05:42:52;19.80;68.80
38514;DHT22;24282;48.400;10.808;2023-06-19T05:45:17;19.90;68.80
38514;DHT22;24282;48.400;10.808;2023-06-19T05:47:43;19.90;68.70
38514;DHT22;24282;48.400;10.808;2023-06-19T05:50:09;20.00;68.50
38514;DHT22;24282;48.400;10.808;2023-06-19T05:52:35;20.20;68.20
38514;DHT22;24282;48.400;10.808;2023-06-19T05:55:00;20.30;66.80
38514;DHT22;24282;48.400;10.808;2023-06-19T05:57:27;20.40;66.00
38514;DHT22;24282;48.400;10.808;2023-06-19T05:59:52;20.50;65.60
38514;DHT22;24282;48.400;10.808;2023-06-19T06:02:19;20.70;64.30
38514;DHT22;24282;48.400;10.808;2023-06-19T06:04:45;20.80;64.20
38514;DHT22;24282;48.400;10.808;2023-06-19T06:07:11;20.90;63.50
38514;DHT22;24282;48.400;10.808;2023-06-19T06:09:37;20.90;63.30
38514;DHT22;24282;48.400;10.808;2023-06-19T06:12:04;20.90;62.80
38514;DHT22;24282;48.400;10.808;2023-06-19T06:14:30;21.00;62.50
38514;DHT22;24282;48.400;10.808;2023-06-19T06:16:55;21.10;62.40
38514;DHT22;24282;48.400;10.808;2023-06-19T06:19:21;21.10;62.70
38514;DHT22;24282;48.400;10.808;2023-06-19T06:21:50;21.20;62.90
38514;DHT22;24282;48.400;10.808;2023-06-19T06:24:15;21.20;62.80
38514;DHT22;24282;48.400;10.808;2023-06-19T06:26:41;21.20;62.70
38514;DHT22;24282;48.400;10.808;2023-06-19T06:29:07;21.20;63.00
38514;DHT22;24282;48.400;10.808;2023-06-19T06:31:34;21.20;63.50
38514;DHT22;24282;48.400;10.808;2023-06-19T06:33:59;21.30;63.60
38514;DHT22;24282;48.400;10.808;2023-06-19T06:36:25;21.30;63.20
38514;DHT22;24282;48.400;10.808;2023-06-19T06:38:51;21.30;63.70
38514;DHT22;24282;48.400;10.808;2023-06-19T06:41:17;21.40;63.90
38514;DHT22;24282;48.400;10.808;2023-06-19T06:43:43;21.30;64.30
38514;DHT22;24282;48.400;10.808;2023-06-19T06:46:09;21.30;64.60
38514;DHT22;24282;48.400;10.808;2023-06-19T06:48:36;21.30;64.70
38514;DHT22;24282;48.400;10.808;2023-06-19T06:51:02;21.30;64.50
38514;DHT22;24282;48.400;10.808;2023-06-19T06:53:28;21.40;64.20
38514;DHT22;24282;48.400;10.808;2023-06-19T06:55:55;21.40;63.90
38514;DHT22;24282;48.400;10.808;2023-06-19T06:58:20;21.40;63.90
38514;DHT22;24282;48.400;10.808;2023-06-19T07:00:46;21.50;64.40
38514;DHT22;24282;48.400;10.808;2023-06-19T07:03:13;21.70;64.30
38514;DHT22;24282;48.400;10.808;2023-06-19T07:05:38;21.80;64.20
38514;DHT22;24282;48.400;10.808;2023-06-19T07:08:04;21.90;64.00
38514;DHT22;24282;48.400;10.808;2023-06-19T07:10:30;21.90;63.60
38514;DHT22;24282;48.400;10.808;2023-06-19T07:12:56;22.00;63.20
38514;DHT22;24282;48.400;10.808;2023-06-19T07:15:22;22.10;63.10
38514;DHT22;24282;48.400;10.808;2023-06-19T07:17:48;22.20;62.50
38514;DHT22;24282;48.400;10.808;2023-06-19T07:20:14;22.30;61.90
38514;DHT22;24282;48.400;10.808;2023-06-19T07:22:41;22.30;61.50
38514;DHT22;24282;48.400;10.808;2023-06-19T07:25:07;22.40;61.30
38514;DHT22;24282;48.400;10.808;2023-06-19T07:27:34;22.40;61.40
38514;DHT22;24282;48.400;10.808;2023-06-19T07:30:00;22.40;61.80
38514;DHT22;24282;48.400;10.808;2023-06-19T07:32:26;22.40;61.80
38514;DHT22;24282;48.400;10.808;2023-06-19T07:34:52;22.40;62.00
38514;DHT22;24282;48.400;10.808;2023-06-19T07:37:18;22.50;60.10
38514;DHT22;24282;48.400;10.808;2023-06-19T07:39:45;22.50;59.90
38514;DHT22;24282;48.400;10.808;2023-06-19T07:42:10;22.50;60.30
38514;DHT22;24282;48.400;10.808;2023-06-19T07:44:36;22.50;60.90
38514;DHT22;24282;48.400;10.808;2023-06-19T07:47:02;22.40;60.50
38514;DHT22;24282;48.400;10.808;2023-06-19T07:49:28;22.40;60.50
38514;DHT22;24282;48.400;10.808;2023-06-19T07:51:53;22.40;60.90
38514;DHT22;24282;48.400;10.808;2023-06-19T07:54:19;22.40;60.20
38514;DHT22;24282;48.400;10.808;2023-06-19T07:56:45;22.40;60.60
38514;DHT22;24282;48.400;10.808;2023-06-19T07:59:10;22.40;60.10
38514;DHT22;24282;48.400;10.808;2023-06-19T08:01:36;22.40;60.20
38514;DHT22;24282;48.400;10.808;2023-06-19T08:04:02;22.40;60.90
38514;DHT22;24282;48.400;10.808;2023-06-19T08:06:28;22.30;60.90
38514;DHT22;24282;48.400;10.808;2023-06-19T08:08:53;22.40;61.00
38514;DHT22;24282;48.400;10.808;2023-06-19T08:11:19;22.40;60.90
38514;DHT22;24282;48.400;10.808;2023-06-19T08:13:46;22.40;61.40
38514;DHT22;24282;48.400;10.808;2023-06-19T08:16:12;22.40;61.10
38514;DHT22;24282;48.400;10.808;2023-06-19T08:18:37;22.60;60.30
38514;DHT22;24282;48.400;10.808;2023-06-19T08:21:03;22.70;60.50
38514;DHT22;24282;48.400;10.808;2023-06-19T08:23:29;22.90;60.50
38514;DHT22;24282;48.400;10.808;2023-06-19T08:25:55;23.00;60.50
38514;DHT22;24282;48.400;10.808;2023-06-19T08:28:20;23.10;60.30
38514;DHT22;24282;48.400;10.808;2023-06-19T08:30:46;23.30;59.70
38514;DHT22;24282;48.400;10.808;2023-06-19T08:33:13;23.50;59.20
38514;DHT22;24282;48.400;10.808;2023-06-19T08:35:39;23.70;59.20
38514;DHT22;24282;48.400;10.808;2023-06-19T08:38:05;24.00;57.70
38514;DHT22;24282;48.400;10.808;2023-06-19T08:40:31;24.30;58.20
38514;DHT22;24282;48.400;10.808;2023-06-19T08:42:56;24.50;57.30
38514;DHT22;24282;48.400;10.808;2023-06-19T08:45:22;24.60;56.50
38514;DHT22;24282;48.400;10.808;2023-06-19T08:47:48;24.60;56.60
38514;DHT22;24282;48.400;10.808;2023-06-19T08:50:15;24.50;57.30
38514;DHT22;24282;48.400;10.808;2023-06-19T08:52:41;24.40;57.20
38514;DHT22;24282;48.400;10.808;2023-06-19T08:55:07;24.40;57.30
38514;DHT22;24282;48.400;10.808;2023-06-19T08:57:40;24.40;56.60
38514;DHT22;24282;48.400;10.808;2023-06-19T09:00:06;24.40;56.90
38514;DHT22;24282;48.400;10.808;2023-06-19T09:02:46;24.50;57.00
38514;DHT22;24282;48.400;10.808;2023-06-19T09:05:16;24.50;57.20
38514;DHT22;24282;48.400;10.808;2023-06-19T09:07:44;24.50;58.50
38514;DHT22;24282;48.400;10.808;2023-06-19T09:10:17;24.70;58.30
38514;DHT22;24282;48.400;10.808;2023-06-19T09:13:02;24.80;57.30
38514;DHT22;24282;48.400;10.808;2023-06-19T09:15:32;24.90;55.40
38514;DHT22;24282;48.400;10.808;2023-06-19T09:18:03;24.90;54.70
38514;DHT22;24282;48.400;10.808;2023-06-19T09:20:29;24.90;55.20
38514;DHT22;24282;48.400;10.808;2023-06-19T09:22:56;25.00;54.10
38514;DHT22;24282;48.400;10.808;2023-06-19T09:25:21;25.00;54.70
38514;DHT22;24282;48.400;10.808;2023-06-19T09:27:49;25.10;55.00
38514;DHT22;24282;48.400;10.808;2023-06-19T09:30:18;25.20;55.20
38514;DHT22;24282;48.400;10.808;2023-06-19T09:32:45;25.30;54.30
38514;DHT22;24282;48.400;10.808;2023-06-19T09:35:11;25.30;54.40
38514;DHT22;24282;48.400;10.808;2023-06-19T09:37:38;25.60;54.20
38514;DHT22;24282;48.400;10.808;2023-06-19T09:40:05;25.80;53.90
38514;DHT22;24282;48.400;10.808;2023-06-19T09:42:42;25.60;52.80
38514;DHT22;24282;48.400;10.808;2023-06-19T09:45:18;25.50;53.00
38514;DHT22;24282;48.400;10.808;2023-06-19T09:47:46;25.40;53.80
38514;DHT22;24282;48.400;10.808;2023-06-19T09:50:13;25.30;55.00
38514;DHT22;24282;48.400;10.808;2023-06-19T09:52:40;25.20;55.00
38514;DHT22;24282;48.400;10.808;2023-06-19T09:55:09;25.20;55.00
38514;DHT22;24282;48.400;10.808;2023-06-19T09:57:38;25.30;55.20
38514;DHT22;24282;48.400;10.808;2023-06-19T10:00:06;25.30;55.40
38514;DHT22;24282;48.400;10.808;2023-06-19T10:02:42;25.50;55.30
38514;DHT22;24282;48.400;10.808;2023-06-19T10:05:09;25.50;54.50
38514;DHT22;24282;48.400;10.808;2023-06-19T10:07:41;25.60;55.10
38514;DHT22;24282;48.400;10.808;2023-06-19T10:10:10;25.80;56.00
38514;DHT22;24282;48.400;10.808;2023-06-19T10:15:19;26.30;53.90
38514;DHT22;24282;48.400;10.808;2023-06-19T10:17:54;26.60;54.50
38514;DHT22;24282;48.400;10.808;2023-06-19T10:20:35;26.90;52.00
38514;DHT22;24282;48.400;10.808;2023-06-19T10:23:16;27.20;52.10
38514;DHT22;24282;48.400;10.808;2023-06-19T10:25:45;27.30;51.60
38514;DHT22;24282;48.400;10.808;2023-06-19T10:28:21;27.30;49.40
38514;DHT22;24282;48.400;10.808;2023-06-19T10:31:07;27.30;48.60
38514;DHT22;24282;48.400;10.808;2023-06-19T10:33:37;27.50;48.90
38514;DHT22;24282;48.400;10.808;2023-06-19T10:36:22;27.70;49.40
38514;DHT22;24282;48.400;10.808;2023-06-19T10:38:49;27.90;48.90
38514;DHT22;24282;48.400;10.808;2023-06-19T10:41:25;28.10;47.00
38514;DHT22;24282;48.400;10.808;2023-06-19T10:44:03;28.30;42.90
38514;DHT22;24282;48.400;10.808;2023-06-19T10:46:36;28.50;42.00
38514;DHT22;24282;48.400;10.808;2023-06-19T10:49:04;28.80;42.90
38514;DHT22;24282;48.400;10.808;2023-06-19T10:51:31;28.90;43.10
38514;DHT22;24282;48.400;10.808;2023-06-19T10:53:57;29.10;42.70
38514;DHT22;24282;48.400;10.808;2023-06-19T10:56:24;29.30;42.90
38514;DHT22;24282;48.400;10.808;2023-06-19T10:59:06;29.50;42.80
38514;DHT22;24282;48.400;10.808;2023-06-19T11:01:42;29.60;42.80
38514;DHT22;24282;48.400;10.808;2023-06-19T11:04:10;29.50;43.20
38514;DHT22;24282;48.400;10.808;2023-06-19T11:06:37;29.60;43.30
38514;DHT22;24282;48.400;10.808;2023-06-19T11:09:04;29.80;41.70
38514;DHT22;24282;48.400;10.808;2023-06-19T11:11:47;29.80;41.20
38514;DHT22;24282;48.400;10.808;2023-06-19T11:14:14;29.80;39.80
38514;DHT22;24282;48.400;10.808;2023-06-19T11:16:42;29.80;39.50
38514;DHT22;24282;48.400;10.808;2023-06-19T11:19:13;29.90;40.50
38514;DHT22;24282;48.400;10.808;2023-06-19T11:21:39;29.90;40.30
38514;DHT22;24282;48.400;10.808;2023-06-19T11:24:09;30.00;41.90
38514;DHT22;24282;48.400;10.808;2023-06-19T11:26:40;30.20;41.90
38514;DHT22;24282;48.400;10.808;2023-06-19T11:29:25;30.20;40.60
38514;DHT22;24282;48.400;10.808;2023-06-19T11:31:54;30.30;40.20
38514;DHT22;24282;48.400;10.808;2023-06-19T11:34:33;30.40;40.10
38514;DHT22;24282;48.400;10.808;2023-06-19T11:36:59;30.50;40.10
38514;DHT22;24282;48.400;10.808;2023-06-19T11:39:25;30.60;39.30
38514;DHT22;24282;48.400;10.808;2023-06-19T11:41:51;30.60;39.50
38514;DHT22;24282;48.400;10.808;2023-06-19T11:44:17;30.70;39.90
38514;DHT22;24282;48.400;10.808;2023-06-19T11:46:43;30.80;40.00
38514;DHT22;24282;48.400;10.808;2023-06-19T11:49:12;30.80;39.40
38514;DHT22;24282;48.400;10.808;2023-06-19T11:51:40;31.00;40.10
38514;DHT22;24282;48.400;10.808;2023-06-19T11:54:07;31.10;39.70
38514;DHT22;24282;48.400;10.808;2023-06-19T11:56:34;31.20;40.00
38514;DHT22;24282;48.400;10.808;2023-06-19T11:59:01;31.20;39.80
38514;DHT22;24282;48.400;10.808;2023-06-19T12:01:29;31.30;38.10
38514;DHT22;24282;48.400;10.808;2023-06-19T12:03:55;31.30;37.50
38514;DHT22;24282;48.400;10.808;2023-06-19T12:06:21;31.30;38.00
38514;DHT22;24282;48.400;10.808;2023-06-19T12:08:46;31.30;38.80
38514;DHT22;24282;48.400;10.808;2023-06-19T12:11:12;31.40;38.70
38514;DHT22;24282;48.400;10.808;2023-06-19T12:13:40;31.50;37.70
38514;DHT22;24282;48.400;10.808;2023-06-19T12:16:10;31.50;37.60
38514;DHT22;24282;48.400;10.808;2023-06-19T12:18:36;31.60;37.50
38514;DHT22;24282;48.400;10.808;2023-06-19T12:21:02;31.60;37.90
38514;DHT22;24282;48.400;10.808;2023-06-19T12:23:28;31.70;37.50
38514;DHT22;24282;48.400;10.808;2023-06-19T12:25:54;31.80;38.10
38514;DHT22;24282;48.400;10.808;2023-06-19T12:28:20;31.80;38.00
38514;DHT22;24282;48.400;10.808;2023-06-19T12:30:47;31.80;37.30
38514;DHT22;24282;48.400;10.808;2023-06-19T12:33:20;31.90;36.60
38514;DHT22;24282;48.400;10.808;2023-06-19T12:35:49;32.00;34.70
38514;DHT22;24282;48.400;10.808;2023-06-19T12:38:14;32.00;35.10
38514;DHT22;24282;48.400;10.808;2023-06-19T12:40:41;32.10;35.50
38514;DHT22;24282;48.400;10.808;2023-06-19T12:43:07;32.20;35.10
38514;DHT22;24282;48.400;10.808;2023-06-19T12:45:33;32.20;34.90
38514;DHT22;24282;48.400;10.808;2023-06-19T12:47:59;32.30;35.60
38514;DHT22;24282;48.400;10.808;2023-06-19T12:50:24;32.30;35.70
38514;DHT22;24282;48.400;10.808;2023-06-19T12:52:50;32.40;35.30
38514;DHT22;24282;48.400;10.808;2023-06-19T12:55:16;32.40;34.70
38514;DHT22;24282;48.400;10.808;2023-06-19T12:57:42;32.30;33.70
38514;DHT22;24282;48.400;10.808;2023-06-19T13:00:09;32.40;34.10
38514;DHT22;24282;48.400;10.808;2023-06-19T13:02:35;32.50;33.90
38514;DHT22;24282;48.400;10.808;2023-06-19T13:05:02;32.60;34.00
38514;DHT22;24282;48.400;10.808;2023-06-19T13:07:28;32.70;34.50
38514;DHT22;24282;48.400;10.808;2023-06-19T13:09:53;32.70;33.70
38514;DHT22;24282;48.400;10.808;2023-06-19T13:12:21;32.80;34.00
38514;DHT22;24282;48.400;10.808;2023-06-19T13:14:47;32.80;33.80
38514;DHT22;24282;48.400;10.808;2023-06-19T13:17:13;32.80;33.00
38514;DHT22;24282;48.400;10.808;2023-06-19T13:19:39;32.70;32.80
38514;DHT22;24282;48.400;10.808;2023-06-19T13:22:05;32.80;32.80
38514;DHT22;24282;48.400;10.808;2023-06-19T13:24:31;32.80;33.00
38514;DHT22;24282;48.400;10.808;2023-06-19T13:26:57;32.80;33.80
38514;DHT22;24282;48.400;10.808;2023-06-19T13:29:23;32.80;33.30
38514;DHT22;24282;48.400;10.808;2023-06-19T13:31:48;32.90;33.40
38514;DHT22;24282;48.400;10.808;2023-06-19T13:34:14;32.90;33.90
38514;DHT22;24282;48.400;10.808;2023-06-19T13:36:40;32.90;34.10
38514;DHT22;24282;48.400;10.808;2023-06-19T13:39:06;32.90;34.00
38514;DHT22;24282;48.400;10.808;2023-06-19T13:41:32;32.80;34.50
38514;DHT22;24282;48.400;10.808;2023-06-19T13:44:01;32.70;34.30
38514;DHT22;24282;48.400;10.808;2023-06-19T13:46:27;32.60;34.50
38514;DHT22;24282;48.400;10.808;2023-06-19T13:48:53;32.50;32.80
38514;DHT22;24282;48.400;10.808;2023-06-19T13:51:20;32.30;33.50
38514;DHT22;24282;48.400;10.808;2023-06-19T13:53:47;32.10;34.20
38514;DHT22;24282;48.400;10.808;2023-06-19T13:56:13;31.80;35.20
38514;DHT22;24282;48.400;10.808;2023-06-19T13:58:39;31.60;36.10
38514;DHT22;24282;48.400;10.808;2023-06-19T14:01:05;31.40;36.40
38514;DHT22;24282;48.400;10.808;2023-06-19T14:03:31;31.30;35.80
38514;DHT22;24282;48.400;10.808;2023-06-19T14:05:57;31.20;35.70
38514;DHT22;24282;48.400;10.808;2023-06-19T14:08:23;31.20;36.90
38514;DHT22;24282;48.400;10.808;2023-06-19T14:10:50;31.30;35.30
38514;DHT22;24282;48.400;10.808;2023-06-19T14:13:16;31.60;35.20
38514;DHT22;24282;48.400;10.808;2023-06-19T14:15:42;31.80;35.30
38514;DHT22;24282;48.400;10.808;2023-06-19T14:18:07;32.00;35.10
38514;DHT22;24282;48.400;10.808;2023-06-19T14:20:34;32.20;34.10
38514;DHT22;24282;48.400;10.808;2023-06-19T14:23:00;32.30;33.70
38514;DHT22;24282;48.400;10.808;2023-06-19T14:25:26;32.40;34.30
38514;DHT22;24282;48.400;10.808;2023-06-19T14:27:51;32.40;33.80
38514;DHT22;24282;48.400;10.808;2023-06-19T14:30:18;32.50;33.40
38514;DHT22;24282;48.400;10.808;2023-06-19T14:32:44;32.50;33.90
38514;DHT22;24282;48.400;10.808;2023-06-19T14:35:10;32.30;33.00
38514;DHT22;24282;48.400;10.808;2023-06-19T14:37:36;32.00;34.30
38514;DHT22;24282;48.400;10.808;2023-06-19T14:40:02;31.90;34.50
38514;DHT22;24282;48.400;10.808;2023-06-19T14:42:28;32.00;33.50
38514;DHT22;24282;48.400;10.808;2023-06-19T14:44:54;32.00;33.70
38514;DHT22;24282;48.400;10.808;2023-06-19T14:47:20;32.10;33.90
38514;DHT22;24282;48.400;10.808;2023-06-19T14:49:46;32.20;34.00
38514;DHT22;24282;48.400;10.808;2023-06-19T14:52:13;32.30;33.90
38514;DHT22;24282;48.400;10.808;2023-06-19T14:54:40;32.30;32.70
38514;DHT22;24282;48.400;10.808;2023-06-19T14:57:06;32.30;33.20
38514;DHT22;24282;48.400;10.808;2023-06-19T14:59:32;32.50;33.00
38514;DHT22;24282;48.400;10.808;2023-06-19T15:01:58;32.50;32.70
38514;DHT22;24282;48.400;10.808;2023-06-19T15:04:23;32.50;32.90
38514;DHT22;24282;48.400;10.808;2023-06-19T15:06:49;32.50;33.50
38514;DHT22;24282;48.400;10.808;2023-06-19T15:09:15;32.50;34.40
38514;DHT22;24282;48.400;10.808;2023-06-19T15:11:41;32.50;35.20
38514;DHT22;24282;48.400;10.808;2023-06-19T15:14:06;32.40;35.60
38514;DHT22;24282;48.400;10.808;2023-06-19T15:16:32;32.30;35.20
38514;DHT22;24282;48.400;10.808;2023-06-19T15:18:58;32.30;35.20
38514;DHT22;24282;48.400;10.808;2023-06-19T15:21:24;32.30;35.40
38514;DHT22;24282;48.400;10.808;2023-06-19T15:23:53;32.30;35.40